sensor_id;sensor_type;location;lat;lon;timestamp;pressure;altitude;pressure_sealevel;temperature
27826;BMP280;15077;49.704;9.908;2023-11-21T00:01:04;97481.25;;;13.17
27826;BMP280;15077;49.704;9.908;2023-11-21T00:03:31;97490.63;;;13.16
27826;BMP280;15077;49.704;9.908;2023-11-21T00:05:57;97484.59;;;13.17
27826;BMP280;15077;49.704;9.908;2023-11-21T00:08:23;97477.06;;;13.16
27826;BMP280;15077;49.704;9.908;2023-11-21T00:10:48;97478.72;;;13.17
27826;BMP280;15077;49.704;9.908;2023-11-21T00:13:14;97480.44;;;13.16
27826;BMP280;15077;49.704;9.908;2023-11-21T00:15:40;97479.63;;;13.16
27826;BMP280;15077;49.704;9.908;2023-11-21T00:18:06;97488.19;;;13.15
27826;BMP280;15077;49.704;9.908;2023-11-21T00:20:32;97477.16;;;13.14
27826;BMP280;15077;49.704;9.908;2023-11-21T00:22:57;97473.09;;;13.12
27826;BMP280;15077;49.704;9.908;2023-11-21T00:25:25;97475.63;;;13.12
27826;BMP280;15077;49.704;9.908;2023-11-21T00:27:50;97483.28;;;13.12
27826;BMP280;15077;49.704;9.908;2023-11-21T00:30:17;97479.09;;;13.11
27826;BMP280;15077;49.704;9.908;2023-11-21T00:32:46;97480.81;;;13.10
27826;BMP280;15077;49.704;9.908;2023-11-21T00:35:13;97478.28;;;13.10
27826;BMP280;15077;49.704;9.908;2023-11-21T00:37:38;97483.47;;;13.09
27826;BMP280;15077;49.704;9.908;2023-11-21T00:40:05;97490.16;;;13.10
27826;BMP280;15077;49.704;9.908;2023-11-21T00:42:31;97486.91;;;13.08
27826;BMP280;15077;49.704;9.908;2023-11-21T00:45:00;97488.53;;;13.09
27826;BMP280;15077;49.704;9.908;2023-11-21T00:47:26;97482.53;;;13.10
27826;BMP280;15077;49.704;9.908;2023-11-21T00:49:51;97496.88;;;13.11
27826;BMP280;15077;49.704;9.908;2023-11-21T00:52:19;97495.25;;;13.10
27826;BMP280;15077;49.704;9.908;2023-11-21T00:54:46;97490.16;;;13.10
27826;BMP280;15077;49.704;9.908;2023-11-21T00:57:13;97486.00;;;13.09
27826;BMP280;15077;49.704;9.908;2023-11-21T00:59:39;97491.81;;;13.11
27826;BMP280;15077;49.704;9.908;2023-11-21T01:02:05;97480.81;;;13.10
27826;BMP280;15077;49.704;9.908;2023-11-21T01:04:30;97485.06;;;13.10
27826;BMP280;15077;49.704;9.908;2023-11-21T01:06:57;97488.53;;;13.09
27826;BMP280;15077;49.704;9.908;2023-11-21T01:09:23;97485.91;;;13.10
27826;BMP280;15077;49.704;9.908;2023-11-21T01:11:49;97484.16;;;13.11
27826;BMP280;15077;49.704;9.908;2023-11-21T01:14:15;97478.19;;;13.12
27826;BMP280;15077;49.704;9.908;2023-11-21T01:16:40;97484.88;;;13.13
27826;BMP280;15077;49.704;9.908;2023-11-21T01:19:06;97484.09;;;13.12
27826;BMP280;15077;49.704;9.908;2023-11-21T01:21:32;97485.81;;;13.12
27826;BMP280;15077;49.704;9.908;2023-11-21T01:23:57;97482.53;;;13.10
27826;BMP280;15077;49.704;9.908;2023-11-21T01:26:23;97490.16;;;13.10
27826;BMP280;15077;49.704;9.908;2023-11-21T01:28:48;97481.81;;;13.08
27826;BMP280;15077;49.704;9.908;2023-11-21T01:31:17;97485.25;;;13.07
27826;BMP280;15077;49.704;9.908;2023-11-21T01:33:43;97481.09;;;13.06
27826;BMP280;15077;49.704;9.908;2023-11-21T01:36:09;97482.78;;;13.06
27826;BMP280;15077;49.704;9.908;2023-11-21T01:38:35;97482.00;;;13.05
27826;BMP280;15077;49.704;9.908;2023-11-21T01:41:01;97490.53;;;13.04
27826;BMP280;15077;49.704;9.908;2023-11-21T01:43:27;97488.06;;;13.03
27826;BMP280;15077;49.704;9.908;2023-11-21T01:45:55;97492.34;;;13.02
27826;BMP280;15077;49.704;9.908;2023-11-21T01:48:24;97487.25;;;13.02
27826;BMP280;15077;49.704;9.908;2023-11-21T01:50:51;97483.91;;;13.02
27826;BMP280;15077;49.704;9.908;2023-11-21T01:53:17;97484.81;;;13.01
27826;BMP280;15077;49.704;9.908;2023-11-21T01:55:45;97489.09;;;13.00
27826;BMP280;15077;49.704;9.908;2023-11-21T01:58:11;97485.00;;;12.98
27826;BMP280;15077;49.704;9.908;2023-11-21T02:00:38;97489.28;;;12.97
27826;BMP280;15077;49.704;9.908;2023-11-21T02:03:04;97496.16;;;12.95
27826;BMP280;15077;49.704;9.908;2023-11-21T02:05:30;97491.25;;;12.92
27826;BMP280;15077;49.704;9.908;2023-11-21T02:07:55;97493.06;;;12.90
27826;BMP280;15077;49.704;9.908;2023-11-21T02:10:22;97490.63;;;12.89
27826;BMP280;15077;49.704;9.908;2023-11-21T02:12:50;97492.31;;;12.88
27826;BMP280;15077;49.704;9.908;2023-11-21T02:15:16;97493.25;;;12.87
27826;BMP280;15077;49.704;9.908;2023-11-21T02:17:46;97481.44;;;12.86
27826;BMP280;15077;49.704;9.908;2023-11-21T02:20:13;97487.41;;;12.85
27826;BMP280;15077;49.704;9.908;2023-11-21T02:22:51;97490.91;;;12.84
27826;BMP280;15077;49.704;9.908;2023-11-21T02:25:30;97483.41;;;12.81
27826;BMP280;15077;49.704;9.908;2023-11-21T02:28:03;97482.56;;;12.81
27826;BMP280;15077;49.704;9.908;2023-11-21T02:30:29;97483.41;;;12.81
27826;BMP280;15077;49.704;9.908;2023-11-21T02:32:57;97486.84;;;12.80
27826;BMP280;15077;49.704;9.908;2023-11-21T02:35:23;97488.50;;;12.81
27826;BMP280;15077;49.704;9.908;2023-11-21T02:37:51;97481.78;;;12.80
27826;BMP280;15077;49.704;9.908;2023-11-21T02:40:17;97486.03;;;12.80
27826;BMP280;15077;49.704;9.908;2023-11-21T02:42:47;97482.56;;;12.81
27826;BMP280;15077;49.704;9.908;2023-11-21T02:45:13;97484.41;;;12.79
27826;BMP280;15077;49.704;9.908;2023-11-21T02:47:39;97483.59;;;12.78
27826;BMP280;15077;49.704;9.908;2023-11-21T02:50:06;97484.41;;;12.79
27826;BMP280;15077;49.704;9.908;2023-11-21T02:52:34;97482.75;;;12.78
27826;BMP280;15077;49.704;9.908;2023-11-21T02:55:01;97482.75;;;12.78
27826;BMP280;15077;49.704;9.908;2023-11-21T02:57:27;97475.03;;;12.79
27826;BMP280;15077;49.704;9.908;2023-11-21T02:59:52;97484.41;;;12.79
27826;BMP280;15077;49.704;9.908;2023-11-21T03:02:18;97481.84;;;12.79
27826;BMP280;15077;49.704;9.908;2023-11-21T03:04:44;97481.78;;;12.80
27826;BMP280;15077;49.704;9.908;2023-11-21T03:07:09;97485.22;;;12.79
27826;BMP280;15077;49.704;9.908;2023-11-21T03:09:35;97485.22;;;12.79
27826;BMP280;15077;49.704;9.908;2023-11-21T03:12:01;97481.84;;;12.79
27826;BMP280;15077;49.704;9.908;2023-11-21T03:14:27;97485.22;;;12.79
27826;BMP280;15077;49.704;9.908;2023-11-21T03:16:53;97490.28;;;12.79
27826;BMP280;15077;49.704;9.908;2023-11-21T03:19:18;97487.66;;;12.81
27826;BMP280;15077;49.704;9.908;2023-11-21T03:21:44;97486.75;;;12.82
27826;BMP280;15077;49.704;9.908;2023-11-21T03:24:09;97494.25;;;12.85
27826;BMP280;15077;49.704;9.908;2023-11-21T03:26:35;97487.34;;;12.87
27826;BMP280;15077;49.704;9.908;2023-11-21T03:29:02;97493.88;;;12.91
27826;BMP280;15077;49.704;9.908;2023-11-21T03:31:28;97501.34;;;12.94
27826;BMP280;15077;49.704;9.908;2023-11-21T03:33:54;97496.06;;;12.97
27826;BMP280;15077;49.704;9.908;2023-11-21T03:36:19;97500.06;;;13.01
27826;BMP280;15077;49.704;9.908;2023-11-21T03:38:45;97492.34;;;13.02
27826;BMP280;15077;49.704;9.908;2023-11-21T03:41:11;97497.25;;;13.05
27826;BMP280;15077;49.704;9.908;2023-11-21T03:43:37;97493.72;;;13.08
27826;BMP280;15077;49.704;9.908;2023-11-21T03:46:03;97494.34;;;13.11
27826;BMP280;15077;49.704;9.908;2023-11-21T03:48:29;97500.91;;;13.15
27826;BMP280;15077;49.704;9.908;2023-11-21T03:50:55;97497.34;;;13.17
27826;BMP280;15077;49.704;9.908;2023-11-21T03:53:20;97500.63;;;13.19
27826;BMP280;15077;49.704;9.908;2023-11-21T03:55:46;97499.50;;;13.23
27826;BMP280;15077;49.704;9.908;2023-11-21T03:58:11;97501.97;;;13.25
27826;BMP280;15077;49.704;9.908;2023-11-21T04:00:37;97499.22;;;13.28
27826;BMP280;15077;49.704;9.908;2023-11-21T04:03:05;97507.63;;;13.30
27826;BMP280;15077;49.704;9.908;2023-11-21T04:05:30;97506.69;;;13.31
27826;BMP280;15077;49.704;9.908;2023-11-21T04:07:56;97504.97;;;13.31
27826;BMP280;15077;49.704;9.908;2023-11-21T04:10:22;97511.59;;;13.34
27826;BMP280;15077;49.704;9.908;2023-11-21T04:12:47;97504.69;;;13.36
27826;BMP280;15077;49.704;9.908;2023-11-21T04:15:14;97512.31;;;13.36
27826;BMP280;15077;49.704;9.908;2023-11-21T04:17:40;97512.31;;;13.36
27826;BMP280;15077;49.704;9.908;2023-11-21T04:20:07;97511.44;;;13.37
27826;BMP280;15077;49.704;9.908;2023-11-21T04:22:41;97512.31;;;13.36
27826;BMP280;15077;49.704;9.908;2023-11-21T04:25:10;97509.69;;;13.37
27826;BMP280;15077;49.704;9.908;2023-11-21T04:27:38;97510.50;;;13.38
27826;BMP280;15077;49.704;9.908;2023-11-21T04:30:04;97513.78;;;13.40
27826;BMP280;15077;49.704;9.908;2023-11-21T04:32:30;97517.13;;;13.40
27826;BMP280;15077;49.704;9.908;2023-11-21T04:34:56;97516.44;;;13.38
27826;BMP280;15077;49.704;9.908;2023-11-21T04:37:21;97518.88;;;13.40
27826;BMP280;15077;49.704;9.908;2023-11-21T04:39:48;97519.88;;;13.37
27826;BMP280;15077;49.704;9.908;2023-11-21T04:42:13;97527.59;;;13.36
27826;BMP280;15077;49.704;9.908;2023-11-21T04:44:39;97528.41;;;13.36
27826;BMP280;15077;49.704;9.908;2023-11-21T04:47:06;97522.50;;;13.36
27826;BMP280;15077;49.704;9.908;2023-11-21T04:49:33;97529.25;;;13.37
27826;BMP280;15077;49.704;9.908;2023-11-21T04:51:59;97523.31;;;13.36
27826;BMP280;15077;49.704;9.908;2023-11-21T04:54:24;97530.06;;;13.37
27826;BMP280;15077;49.704;9.908;2023-11-21T04:56:50;97541.03;;;13.38
27826;BMP280;15077;49.704;9.908;2023-11-21T04:59:16;97533.41;;;13.38
27826;BMP280;15077;49.704;9.908;2023-11-21T05:01:41;97538.41;;;13.39
27826;BMP280;15077;49.704;9.908;2023-11-21T05:04:07;97540.84;;;13.41
27826;BMP280;15077;49.704;9.908;2023-11-21T05:06:34;97542.50;;;13.42
27826;BMP280;15077;49.704;9.908;2023-11-21T05:09:00;97544.16;;;13.43
27826;BMP280;15077;49.704;9.908;2023-11-21T05:11:27;97544.16;;;13.43
27826;BMP280;15077;49.704;9.908;2023-11-21T05:13:53;97545.03;;;13.42
27826;BMP280;15077;49.704;9.908;2023-11-21T05:16:21;97546.59;;;13.44
27826;BMP280;15077;49.704;9.908;2023-11-21T05:18:47;97551.69;;;13.44
27826;BMP280;15077;49.704;9.908;2023-11-21T05:21:13;97544.06;;;13.44
27826;BMP280;15077;49.704;9.908;2023-11-21T05:23:40;97557.59;;;13.45
27826;BMP280;15077;49.704;9.908;2023-11-21T05:26:05;97548.22;;;13.45
27826;BMP280;15077;49.704;9.908;2023-11-21T05:28:31;97554.22;;;13.44
27826;BMP280;15077;49.704;9.908;2023-11-21T05:30:57;97563.50;;;13.45
27826;BMP280;15077;49.704;9.908;2023-11-21T05:33:23;97558.41;;;13.45
27826;BMP280;15077;49.704;9.908;2023-11-21T05:35:49;97565.94;;;13.47
27826;BMP280;15077;49.704;9.908;2023-11-21T05:38:14;97565.94;;;13.47
27826;BMP280;15077;49.704;9.908;2023-11-21T05:40:40;97572.69;;;13.48
27826;BMP280;15077;49.704;9.908;2023-11-21T05:43:06;97576.88;;;13.49
27826;BMP280;15077;49.704;9.908;2023-11-21T05:45:32;97568.31;;;13.50
27826;BMP280;15077;49.704;9.908;2023-11-21T05:48:00;97565.75;;;13.50
27826;BMP280;15077;49.704;9.908;2023-11-21T05:50:26;97572.50;;;13.51
27826;BMP280;15077;49.704;9.908;2023-11-21T05:52:52;97573.31;;;13.51
27826;BMP280;15077;49.704;9.908;2023-11-21T05:55:17;97579.13;;;13.53
27826;BMP280;15077;49.704;9.908;2023-11-21T05:57:43;97582.50;;;13.54
27826;BMP280;15077;49.704;9.908;2023-11-21T06:00:14;97586.69;;;13.55
27826;BMP280;15077;49.704;9.908;2023-11-21T06:02:47;97584.13;;;13.55
27826;BMP280;15077;49.704;9.908;2023-11-21T06:05:16;97588.41;;;13.54
27826;BMP280;15077;49.704;9.908;2023-11-21T06:07:43;97587.59;;;13.54
27826;BMP280;15077;49.704;9.908;2023-11-21T06:10:11;97588.41;;;13.54
27826;BMP280;15077;49.704;9.908;2023-11-21T06:12:38;97594.31;;;13.55
27826;BMP280;15077;49.704;9.908;2023-11-21T06:15:06;97604.50;;;13.55
27826;BMP280;15077;49.704;9.908;2023-11-21T06:17:34;97605.31;;;13.55
27826;BMP280;15077;49.704;9.908;2023-11-21T06:20:03;97602.69;;;13.57
27826;BMP280;15077;49.704;9.908;2023-11-21T06:22:35;97606.13;;;13.56
27826;BMP280;15077;49.704;9.908;2023-11-21T06:25:01;97617.06;;;13.57
27826;BMP280;15077;49.704;9.908;2023-11-21T06:27:28;97616.22;;;13.57
27826;BMP280;15077;49.704;9.908;2023-11-21T06:29:55;97619.59;;;13.57
27826;BMP280;15077;49.704;9.908;2023-11-21T06:32:20;97624.69;;;13.57
27826;BMP280;15077;49.704;9.908;2023-11-21T06:34:48;97624.69;;;13.57
27826;BMP280;15077;49.704;9.908;2023-11-21T06:37:15;97625.50;;;13.58
27826;BMP280;15077;49.704;9.908;2023-11-21T06:39:40;97628.13;;;13.57
27826;BMP280;15077;49.704;9.908;2023-11-21T06:42:07;97628.13;;;13.57
27826;BMP280;15077;49.704;9.908;2023-11-21T06:44:32;97637.50;;;13.56
27826;BMP280;15077;49.704;9.908;2023-11-21T06:46:59;97637.50;;;13.56
27826;BMP280;15077;49.704;9.908;2023-11-21T06:49:24;97641.75;;;13.56
27826;BMP280;15077;49.704;9.908;2023-11-21T06:51:51;97648.59;;;13.55
27826;BMP280;15077;49.704;9.908;2023-11-21T06:54:18;97649.41;;;13.56
27826;BMP280;15077;49.704;9.908;2023-11-21T06:56:43;97651.94;;;13.56
27826;BMP280;15077;49.704;9.908;2023-11-21T06:59:09;97657.03;;;13.56
27826;BMP280;15077;49.704;9.908;2023-11-21T07:01:36;97656.16;;;13.57
27826;BMP280;15077;49.704;9.908;2023-11-21T07:04:05;97659.59;;;13.56
27826;BMP280;15077;49.704;9.908;2023-11-21T07:06:32;97667.13;;;13.57
27826;BMP280;15077;49.704;9.908;2023-11-21T07:08:57;97664.59;;;13.57
27826;BMP280;15077;49.704;9.908;2023-11-21T07:11:24;97667.97;;;13.57
27826;BMP280;15077;49.704;9.908;2023-11-21T07:13:50;97673.97;;;13.57
27826;BMP280;15077;49.704;9.908;2023-11-21T07:16:17;97677.31;;;13.57
27826;BMP280;15077;49.704;9.908;2023-11-21T07:18:44;97678.97;;;13.58
27826;BMP280;15077;49.704;9.908;2023-11-21T07:21:10;97684.88;;;13.58
27826;BMP280;15077;49.704;9.908;2023-11-21T07:23:38;97678.06;;;13.59
27826;BMP280;15077;49.704;9.908;2023-11-21T07:26:03;97689.88;;;13.60
27826;BMP280;15077;49.704;9.908;2023-11-21T07:28:34;97690.72;;;13.60
27826;BMP280;15077;49.704;9.908;2023-11-21T07:31:01;97691.53;;;13.61
27826;BMP280;15077;49.704;9.908;2023-11-21T07:33:27;97692.31;;;13.61
27826;BMP280;15077;49.704;9.908;2023-11-21T07:35:53;97696.53;;;13.62
27826;BMP280;15077;49.704;9.908;2023-11-21T07:38:20;97692.16;;;13.64
27826;BMP280;15077;49.704;9.908;2023-11-21T07:40:45;97703.63;;;13.71
27826;BMP280;15077;49.704;9.908;2023-11-21T07:43:11;97698.16;;;13.77
27826;BMP280;15077;49.704;9.908;2023-11-21T07:45:36;97706.38;;;13.82
27826;BMP280;15077;49.704;9.908;2023-11-21T07:48:02;97712.91;;;13.86
27826;BMP280;15077;49.704;9.908;2023-11-21T07:50:30;97707.72;;;13.88
27826;BMP280;15077;49.704;9.908;2023-11-21T07:52:57;97716.03;;;13.91
27826;BMP280;15077;49.704;9.908;2023-11-21T07:55:23;97714.19;;;13.93
27826;BMP280;15077;49.704;9.908;2023-11-21T07:57:50;97713.28;;;13.94
27826;BMP280;15077;49.704;9.908;2023-11-21T08:00:16;97722.47;;;13.97
27826;BMP280;15077;49.704;9.908;2023-11-21T08:02:41;97725.84;;;13.97
27826;BMP280;15077;49.704;9.908;2023-11-21T08:05:08;97717.25;;;13.98
27826;BMP280;15077;49.704;9.908;2023-11-21T08:07:34;97733.31;;;14.00
27826;BMP280;15077;49.704;9.908;2023-11-21T08:10:00;97729.81;;;14.01
27826;BMP280;15077;49.704;9.908;2023-11-21T08:12:25;97725.47;;;14.03
27826;BMP280;15077;49.704;9.908;2023-11-21T08:14:53;97733.03;;;14.05
27826;BMP280;15077;49.704;9.908;2023-11-21T08:17:19;97733.88;;;14.05
27826;BMP280;15077;49.704;9.908;2023-11-21T08:19:45;97742.31;;;14.06
27826;BMP280;15077;49.704;9.908;2023-11-21T08:22:17;97744.78;;;14.07
27826;BMP280;15077;49.704;9.908;2023-11-21T08:24:44;97750.63;;;14.09
27826;BMP280;15077;49.704;9.908;2023-11-21T08:27:10;97748.97;;;14.08
27826;BMP280;15077;49.704;9.908;2023-11-21T08:29:35;97745.53;;;14.09
27826;BMP280;15077;49.704;9.908;2023-11-21T08:32:02;97751.44;;;14.09
27826;BMP280;15077;49.704;9.908;2023-11-21T08:34:28;97749.69;;;14.10
27826;BMP280;15077;49.704;9.908;2023-11-21T08:36:54;97753.88;;;14.11
27826;BMP280;15077;49.704;9.908;2023-11-21T08:39:21;97757.34;;;14.10
27826;BMP280;15077;49.704;9.908;2023-11-21T08:41:50;97749.59;;;14.11
27826;BMP280;15077;49.704;9.908;2023-11-21T08:44:16;97763.28;;;14.10
27826;BMP280;15077;49.704;9.908;2023-11-21T08:46:44;97760.81;;;14.09
27826;BMP280;15077;49.704;9.908;2023-11-21T08:49:11;97762.44;;;14.10
27826;BMP280;15077;49.704;9.908;2023-11-21T08:51:37;97762.44;;;14.10
27826;BMP280;15077;49.704;9.908;2023-11-21T08:54:04;97762.44;;;14.10
27826;BMP280;15077;49.704;9.908;2023-11-21T08:56:33;97758.09;;;14.12
27826;BMP280;15077;49.704;9.908;2023-11-21T08:58:59;97761.44;;;14.12
27826;BMP280;15077;49.704;9.908;2023-11-21T09:01:31;97763.00;;;14.15
27826;BMP280;15077;49.704;9.908;2023-11-21T09:03:58;97765.47;;;14.16
27826;BMP280;15077;49.704;9.908;2023-11-21T09:06:24;97768.81;;;14.17
27826;BMP280;15077;49.704;9.908;2023-11-21T09:08:50;97770.47;;;14.18
27826;BMP280;15077;49.704;9.908;2023-11-21T09:11:16;97771.38;;;14.17
27826;BMP280;15077;49.704;9.908;2023-11-21T09:13:42;97778.09;;;14.18
27826;BMP280;15077;49.704;9.908;2023-11-21T09:16:08;97776.38;;;14.18
27826;BMP280;15077;49.704;9.908;2023-11-21T09:18:34;97775.47;;;14.19
27826;BMP280;15077;49.704;9.908;2023-11-21T09:20:59;97781.28;;;14.21
27826;BMP280;15077;49.704;9.908;2023-11-21T09:23:25;97782.09;;;14.22
27826;BMP280;15077;49.704;9.908;2023-11-21T09:25:50;97786.19;;;14.24
27826;BMP280;15077;49.704;9.908;2023-11-21T09:28:17;97793.75;;;14.26
27826;BMP280;15077;49.704;9.908;2023-11-21T09:30:43;97794.56;;;14.26
27826;BMP280;15077;49.704;9.908;2023-11-21T09:33:09;97797.94;;;14.27
27826;BMP280;15077;49.704;9.908;2023-11-21T09:35:39;97797.19;;;14.25
27826;BMP280;15077;49.704;9.908;2023-11-21T09:38:04;97810.88;;;14.24
27826;BMP280;15077;49.704;9.908;2023-11-21T09:40:35;97808.25;;;14.25
27826;BMP280;15077;49.704;9.908;2023-11-21T09:43:05;97807.41;;;14.25
27826;BMP280;15077;49.704;9.908;2023-11-21T09:45:37;97812.31;;;14.28
27826;BMP280;15077;49.704;9.908;2023-11-21T09:48:04;97808.88;;;14.29
27826;BMP280;15077;49.704;9.908;2023-11-21T09:50:32;97821.44;;;14.32
27826;BMP280;15077;49.704;9.908;2023-11-21T09:53:18;97817.97;;;14.33
27826;BMP280;15077;49.704;9.908;2023-11-21T09:55:51;97822.19;;;14.34
27826;BMP280;15077;49.704;9.908;2023-11-21T09:58:18;97832.19;;;14.37
27826;BMP280;15077;49.704;9.908;2023-11-21T10:00:50;97823.63;;;14.38
27826;BMP280;15077;49.704;9.908;2023-11-21T10:03:18;97827.63;;;14.42
27826;BMP280;15077;49.704;9.908;2023-11-21T10:05:44;97830.91;;;14.44
27826;BMP280;15077;49.704;9.908;2023-11-21T10:08:12;97825.72;;;14.45
27826;BMP280;15077;49.704;9.908;2023-11-21T10:10:43;97828.16;;;14.47
27826;BMP280;15077;49.704;9.908;2023-11-21T10:13:12;97835.72;;;14.48
27826;BMP280;15077;49.704;9.908;2023-11-21T10:15:38;97832.28;;;14.49
27826;BMP280;15077;49.704;9.908;2023-11-21T10:18:05;97831.28;;;14.52
27826;BMP280;15077;49.704;9.908;2023-11-21T10:20:32;97835.44;;;14.53
27826;BMP280;15077;49.704;9.908;2023-11-21T10:23:00;97836.19;;;14.55
27826;BMP280;15077;49.704;9.908;2023-11-21T10:25:29;97828.53;;;14.55
27826;BMP280;15077;49.704;9.908;2023-11-21T10:27:59;97831.91;;;14.55
27826;BMP280;15077;49.704;9.908;2023-11-21T10:30:34;97830.91;;;14.57
27826;BMP280;15077;49.704;9.908;2023-11-21T10:33:03;97832.44;;;14.60
27826;BMP280;15077;49.704;9.908;2023-11-21T10:38:07;97843.28;;;14.63
27826;BMP280;15077;49.704;9.908;2023-11-21T10:40:38;97833.00;;;14.65
27826;BMP280;15077;49.704;9.908;2023-11-21T10:43:08;97835.44;;;14.66
27826;BMP280;15077;49.704;9.908;2023-11-21T10:45:38;97829.31;;;14.69
27826;BMP280;15077;49.704;9.908;2023-11-21T10:48:08;97834.34;;;14.70
27826;BMP280;15077;49.704;9.908;2023-11-21T10:50:45;97834.22;;;14.72
27826;BMP280;15077;49.704;9.908;2023-11-21T10:53:10;97841.78;;;14.73
27826;BMP280;15077;49.704;9.908;2023-11-21T10:55:37;97836.53;;;14.76
27826;BMP280;15077;49.704;9.908;2023-11-21T10:58:03;97845.63;;;14.80
27826;BMP280;15077;49.704;9.908;2023-11-21T11:00:32;97845.44;;;14.83
27826;BMP280;15077;49.704;9.908;2023-11-21T11:02:59;97851.28;;;14.85
27826;BMP280;15077;49.704;9.908;2023-11-21T11:05:27;97839.06;;;14.90
27826;BMP280;15077;49.704;9.908;2023-11-21T11:08:08;97837.97;;;14.94
27826;BMP280;15077;49.704;9.908;2023-11-21T11:10:35;97845.53;;;14.96
27826;BMP280;15077;49.704;9.908;2023-11-21T11:13:01;97844.31;;;15.01
27826;BMP280;15077;49.704;9.908;2023-11-21T11:15:27;97845.84;;;15.03
27826;BMP280;15077;49.704;9.908;2023-11-21T11:17:54;97846.47;;;15.07
27826;BMP280;15077;49.704;9.908;2023-11-21T11:20:29;97841.28;;;15.08
27826;BMP280;15077;49.704;9.908;2023-11-21T11:23:09;97850.41;;;15.12
27826;BMP280;15077;49.704;9.908;2023-11-21T11:25:46;97852.84;;;15.14
27826;BMP280;15077;49.704;9.908;2023-11-21T11:28:18;97848.44;;;15.16
27826;BMP280;15077;49.704;9.908;2023-11-21T11:36:17;97852.50;;;15.20
27826;BMP280;15077;49.704;9.908;2023-11-21T11:38:46;97860.16;;;15.20
27826;BMP280;15077;49.704;9.908;2023-11-21T11:41:26;97860.91;;;15.22
27826;BMP280;15077;49.704;9.908;2023-11-21T11:43:54;97860.91;;;15.22
27826;BMP280;15077;49.704;9.908;2023-11-21T11:46:19;97863.34;;;15.23
27826;BMP280;15077;49.704;9.908;2023-11-21T11:48:48;97859.88;;;15.24
27826;BMP280;15077;49.704;9.908;2023-11-21T11:51:28;97862.31;;;15.26
27826;BMP280;15077;49.704;9.908;2023-11-21T11:53:54;97861.31;;;15.28
27826;BMP280;15077;49.704;9.908;2023-11-21T11:56:33;97864.59;;;15.30
27826;BMP280;15077;49.704;9.908;2023-11-21T11:59:02;97870.53;;;15.31
27826;BMP280;15077;49.704;9.908;2023-11-21T12:01:29;97863.59;;;15.33
27826;BMP280;15077;49.704;9.908;2023-11-21T12:07:02;97863.50;;;15.34
27826;BMP280;15077;49.704;9.908;2023-11-21T12:09:30;97869.41;;;15.35
27826;BMP280;15077;49.704;9.908;2023-11-21T12:11:57;97868.50;;;15.36
27826;BMP280;15077;49.704;9.908;2023-11-21T12:14:23;97867.59;;;15.37
27826;BMP280;15077;49.704;9.908;2023-11-21T12:16:49;97875.25;;;15.37
27826;BMP280;15077;49.704;9.908;2023-11-21T12:19:15;97873.63;;;15.36
27826;BMP280;15077;49.704;9.908;2023-11-21T12:21:41;97871.78;;;15.38
27826;BMP280;15077;49.704;9.908;2023-11-21T12:24:07;97872.59;;;15.38
27826;BMP280;15077;49.704;9.908;2023-11-21T12:26:37;97868.31;;;15.39
27826;BMP280;15077;49.704;9.908;2023-11-21T12:29:03;97875.97;;;15.39
27826;BMP280;15077;49.704;9.908;2023-11-21T12:31:30;97872.59;;;15.38
27826;BMP280;15077;49.704;9.908;2023-11-21T12:33:56;97876.88;;;15.38
27826;BMP280;15077;49.704;9.908;2023-11-21T12:36:23;97882.81;;;15.38
27826;BMP280;15077;49.704;9.908;2023-11-21T12:38:49;97886.91;;;15.41
27826;BMP280;15077;49.704;9.908;2023-11-21T12:41:15;97881.59;;;15.44
27826;BMP280;15077;49.704;9.908;2023-11-21T12:43:43;97881.41;;;15.47
27826;BMP280;15077;49.704;9.908;2023-11-21T12:46:10;97877.75;;;15.51
27826;BMP280;15077;49.704;9.908;2023-11-21T12:48:43;97880.00;;;15.55
27826;BMP280;15077;49.704;9.908;2023-11-21T12:51:10;97885.03;;;15.56
27826;BMP280;15077;49.704;9.908;2023-11-21T12:53:38;97891.78;;;15.57
27826;BMP280;15077;49.704;9.908;2023-11-21T12:56:11;97881.47;;;15.59
27826;BMP280;15077;49.704;9.908;2023-11-21T12:58:37;97888.09;;;15.61
27826;BMP280;15077;49.704;9.908;2023-11-21T13:01:07;97882.78;;;15.64
27826;BMP280;15077;49.704;9.908;2023-11-21T13:03:38;97896.00;;;15.71
27826;BMP280;15077;49.704;9.908;2023-11-21T13:06:04;97895.00;;;15.73
27826;BMP280;15077;49.704;9.908;2023-11-21T13:08:30;97889.50;;;15.79
27826;BMP280;15077;49.704;9.908;2023-11-21T13:10:58;97878.78;;;15.87
27826;BMP280;15077;49.704;9.908;2023-11-21T13:13:25;97892.09;;;15.92
27826;BMP280;15077;49.704;9.908;2023-11-21T13:15:55;97882.38;;;15.97
27826;BMP280;15077;49.704;9.908;2023-11-21T13:18:27;97886.28;;;16.02
27826;BMP280;15077;49.704;9.908;2023-11-21T13:21:01;97893.75;;;16.05
27826;BMP280;15077;49.704;9.908;2023-11-21T13:23:28;97894.44;;;16.07
27826;BMP280;15077;49.704;9.908;2023-11-21T13:25:54;97886.88;;;16.05
27826;BMP280;15077;49.704;9.908;2023-11-21T13:28:21;97892.09;;;16.04
27826;BMP280;15077;49.704;9.908;2023-11-21T13:30:51;97895.50;;;16.04
27826;BMP280;15077;49.704;9.908;2023-11-21T13:33:19;97892.72;;;16.07
27826;BMP280;15077;49.704;9.908;2023-11-21T13:35:52;97897.75;;;16.09
27826;BMP280;15077;49.704;9.908;2023-11-21T13:38:18;97902.84;;;16.09
27826;BMP280;15077;49.704;9.908;2023-11-21T13:40:49;97906.13;;;16.11
27826;BMP280;15077;49.704;9.908;2023-11-21T13:43:19;97908.56;;;16.12
27826;BMP280;15077;49.704;9.908;2023-11-21T13:45:48;97914.44;;;16.14
27826;BMP280;15077;49.704;9.908;2023-11-21T13:48:17;97922.72;;;16.18
27826;BMP280;15077;49.704;9.908;2023-11-21T13:50:50;97917.59;;;16.18
27826;BMP280;15077;49.704;9.908;2023-11-21T13:53:35;97914.13;;;16.19
27826;BMP280;15077;49.704;9.908;2023-11-21T13:56:03;97910.63;;;16.20
27826;BMP280;15077;49.704;9.908;2023-11-21T13:58:29;97912.28;;;16.21
27826;BMP280;15077;49.704;9.908;2023-11-21T14:01:12;97913.94;;;16.22
27826;BMP280;15077;49.704;9.908;2023-11-21T14:03:56;97913.09;;;16.21
27826;BMP280;15077;49.704;9.908;2023-11-21T14:06:30;97913.94;;;16.22
27826;BMP280;15077;49.704;9.908;2023-11-21T14:09:03;97913.94;;;16.22
27826;BMP280;15077;49.704;9.908;2023-11-21T14:11:31;97917.34;;;16.22
27826;BMP280;15077;49.704;9.908;2023-11-21T14:13:56;97921.59;;;16.22
27826;BMP280;15077;49.704;9.908;2023-11-21T14:16:24;97919.25;;;16.19
27826;BMP280;15077;49.704;9.908;2023-11-21T14:18:50;97922.63;;;16.19
27826;BMP280;15077;49.704;9.908;2023-11-21T14:21:26;97924.38;;;16.19